sensor_id;sensor_type;location;lat;lon;timestamp;pressure;altitude;pressure_sealevel;temperature
37414;BMP280;23279;46.472;30.760;2022-08-19T00:02:04;74968.94;;;-146.33
37414;BMP280;23279;46.472;30.760;2022-08-19T00:04:30;75013.66;;;-146.33
37414;BMP280;23279;46.472;30.760;2022-08-19T00:06:56;75042.09;;;-146.33
37414;BMP280;23279;46.472;30.760;2022-08-19T00:09:22;75072.59;;;-146.33
37414;BMP280;23279;46.472;30.760;2022-08-19T00:11:47;75090.91;;;-146.33
37414;BMP280;23279;46.472;30.760;2022-08-19T00:14:13;75117.31;;;-146.33
37414;BMP280;23279;46.472;30.760;2022-08-19T00:16:40;75119.34;;;-146.33
37414;BMP280;23279;46.472;30.760;2022-08-19T00:19:06;75072.59;;;-146.33
37414;BMP280;23279;46.472;30.760;2022-08-19T00:21:32;75031.94;;;-146.33
37414;BMP280;23279;46.472;30.760;2022-08-19T00:23:57;75017.72;;;-146.33
37414;BMP280;23279;46.472;30.760;2022-08-19T00:26:26;74979.09;;;-146.33
37414;BMP280;23279;46.472;30.760;2022-08-19T00:28:52;74942.50;;;-146.33
37414;BMP280;23279;46.472;30.760;2022-08-19T00:31:17;74907.94;;;-146.33
37414;BMP280;23279;46.472;30.760;2022-08-19T00:33:43;74922.19;;;-146.33
37414;BMP280;23279;46.472;30.760;2022-08-19T00:36:09;74970.97;;;-146.33
37414;BMP280;23279;46.472;30.760;2022-08-19T00:38:35;74970.97;;;-146.33
37414;BMP280;23279;46.472;30.760;2022-08-19T00:41:00;74948.59;;;-146.33
37414;BMP280;23279;46.472;30.760;2022-08-19T00:43:26;74944.53;;;-146.33
37414;BMP280;23279;46.472;30.760;2022-08-19T00:45:51;74924.22;;;-146.33
37414;BMP280;23279;46.472;30.760;2022-08-19T00:48:17;74907.94;;;-146.33
37414;BMP280;23279;46.472;30.760;2022-08-19T00:50:43;74901.84;;;-146.33
37414;BMP280;23279;46.472;30.760;2022-08-19T00:53:12;74903.88;;;-146.33
37414;BMP280;23279;46.472;30.760;2022-08-19T00:55:40;74879.50;;;-146.33
37414;BMP280;23279;46.472;30.760;2022-08-19T00:58:08;74857.13;;;-146.33
37414;BMP280;23279;46.472;30.760;2022-08-19T01:00:35;74871.34;;;-146.33
37414;BMP280;23279;46.472;30.760;2022-08-19T01:03:02;74857.13;;;-146.33
37414;BMP280;23279;46.472;30.760;2022-08-19T01:05:28;74830.72;;;-146.33
37414;BMP280;23279;46.472;30.760;2022-08-19T01:07:57;74810.38;;;-146.33
37414;BMP280;23279;46.472;30.760;2022-08-19T01:10:25;74806.31;;;-146.33
37414;BMP280;23279;46.472;30.760;2022-08-19T01:12:51;74804.28;;;-146.33
37414;BMP280;23279;46.472;30.760;2022-08-19T01:15:18;74853.06;;;-146.33
37414;BMP280;23279;46.472;30.760;2022-08-19T01:17:44;74875.44;;;-146.33
37414;BMP280;23279;46.472;30.760;2022-08-19T01:20:15;74879.50;;;-146.33
37414;BMP280;23279;46.472;30.760;2022-08-19T01:22:59;74877.47;;;-146.33
37414;BMP280;23279;46.472;30.760;2022-08-19T01:25:26;74881.53;;;-146.33
37414;BMP280;23279;46.472;30.760;2022-08-19T01:27:53;74905.91;;;-146.33
37414;BMP280;23279;46.472;30.760;2022-08-19T01:30:23;74895.75;;;-146.33
37414;BMP280;23279;46.472;30.760;2022-08-19T01:32:49;74924.22;;;-146.33
37414;BMP280;23279;46.472;30.760;2022-08-19T01:35:14;74934.38;;;-146.33
37414;BMP280;23279;46.472;30.760;2022-08-19T01:40:18;75033.97;;;-146.33
37414;BMP280;23279;46.472;30.760;2022-08-19T01:42:45;75044.13;;;-146.33
37414;BMP280;23279;46.472;30.760;2022-08-19T01:45:10;75048.22;;;-146.33
37414;BMP280;23279;46.472;30.760;2022-08-19T01:47:36;75052.28;;;-146.33
37414;BMP280;23279;46.472;30.760;2022-08-19T01:50:02;75050.25;;;-146.33
37414;BMP280;23279;46.472;30.760;2022-08-19T01:52:28;75082.75;;;-146.33
37414;BMP280;23279;46.472;30.760;2022-08-19T01:54:53;75050.25;;;-146.33
37414;BMP280;23279;46.472;30.760;2022-08-19T01:57:18;75066.50;;;-146.33
37414;BMP280;23279;46.472;30.760;2022-08-19T01:59:44;75046.19;;;-146.33
37414;BMP280;23279;46.472;30.760;2022-08-19T02:02:10;75046.19;;;-146.33
37414;BMP280;23279;46.472;30.760;2022-08-19T02:04:35;75038.03;;;-146.33
37414;BMP280;23279;46.472;30.760;2022-08-19T02:07:03;75052.28;;;-146.33
37414;BMP280;23279;46.472;30.760;2022-08-19T02:09:28;75094.97;;;-146.33
37414;BMP280;23279;46.472;30.760;2022-08-19T02:11:53;75111.22;;;-146.33
37414;BMP280;23279;46.472;30.760;2022-08-19T02:14:18;75123.44;;;-146.33
37414;BMP280;23279;46.472;30.760;2022-08-19T02:16:44;75123.44;;;-146.33
37414;BMP280;23279;46.472;30.760;2022-08-19T02:19:09;75137.66;;;-146.33
37414;BMP280;23279;46.472;30.760;2022-08-19T02:21:35;75151.88;;;-146.33
37414;BMP280;23279;46.472;30.760;2022-08-19T02:24:00;75168.16;;;-146.33
37414;BMP280;23279;46.472;30.760;2022-08-19T02:26:26;75149.84;;;-146.33
37414;BMP280;23279;46.472;30.760;2022-08-19T02:28:51;75143.75;;;-146.33
37414;BMP280;23279;46.472;30.760;2022-08-19T02:31:19;75176.28;;;-146.33
37414;BMP280;23279;46.472;30.760;2022-08-19T02:33:45;75208.81;;;-146.33
37414;BMP280;23279;46.472;30.760;2022-08-19T02:36:11;75174.25;;;-146.33
37414;BMP280;23279;46.472;30.760;2022-08-19T02:38:37;75196.59;;;-146.33
37414;BMP280;23279;46.472;30.760;2022-08-19T02:41:04;75231.16;;;-146.33
37414;BMP280;23279;46.472;30.760;2022-08-19T02:43:30;75225.06;;;-146.33
37414;BMP280;23279;46.472;30.760;2022-08-19T02:45:56;75223.03;;;-146.33
37414;BMP280;23279;46.472;30.760;2022-08-19T02:48:22;75212.88;;;-146.33
37414;BMP280;23279;46.472;30.760;2022-08-19T02:50:49;75194.56;;;-146.33
37414;BMP280;23279;46.472;30.760;2022-08-19T02:53:23;75196.59;;;-146.33
37414;BMP280;23279;46.472;30.760;2022-08-19T02:55:49;75221.00;;;-146.33
37414;BMP280;23279;46.472;30.760;2022-08-19T02:58:14;75223.03;;;-146.33
37414;BMP280;23279;46.472;30.760;2022-08-19T03:00:47;75208.81;;;-146.33
37414;BMP280;23279;46.472;30.760;2022-08-19T03:03:14;75216.94;;;-146.33
37414;BMP280;23279;46.472;30.760;2022-08-19T03:05:39;75168.16;;;-146.33
37414;BMP280;23279;46.472;30.760;2022-08-19T03:08:05;75153.91;;;-146.33
37414;BMP280;23279;46.472;30.760;2022-08-19T03:10:31;75086.84;;;-146.33
37414;BMP280;23279;46.472;30.760;2022-08-19T03:12:56;75060.41;;;-146.33
37414;BMP280;23279;46.472;30.760;2022-08-19T03:15:21;75052.28;;;-146.33
37414;BMP280;23279;46.472;30.760;2022-08-19T03:17:46;75060.41;;;-146.33
37414;BMP280;23279;46.472;30.760;2022-08-19T03:20:12;75070.56;;;-146.33
37414;BMP280;23279;46.472;30.760;2022-08-19T03:22:37;75088.88;;;-146.33
37414;BMP280;23279;46.472;30.760;2022-08-19T03:25:03;75099.03;;;-146.33
37414;BMP280;23279;46.472;30.760;2022-08-19T03:27:28;75123.44;;;-146.33
37414;BMP280;23279;46.472;30.760;2022-08-19T03:29:54;75099.03;;;-146.33
37414;BMP280;23279;46.472;30.760;2022-08-19T03:32:20;75131.56;;;-146.33
37414;BMP280;23279;46.472;30.760;2022-08-19T03:34:46;75149.84;;;-146.33
37414;BMP280;23279;46.472;30.760;2022-08-19T03:37:12;75180.34;;;-146.33
37414;BMP280;23279;46.472;30.760;2022-08-19T03:39:38;75190.50;;;-146.33
37414;BMP280;23279;46.472;30.760;2022-08-19T03:42:03;75188.47;;;-146.33
37414;BMP280;23279;46.472;30.760;2022-08-19T03:44:29;75166.13;;;-146.33
37414;BMP280;23279;46.472;30.760;2022-08-19T03:46:56;75188.47;;;-146.33
37414;BMP280;23279;46.472;30.760;2022-08-19T03:49:22;75206.78;;;-146.33
37414;BMP280;23279;46.472;30.760;2022-08-19T03:51:48;75235.22;;;-146.33
37414;BMP280;23279;46.472;30.760;2022-08-19T03:54:16;75269.78;;;-146.33
37414;BMP280;23279;46.472;30.760;2022-08-19T03:56:42;75294.19;;;-146.33
37414;BMP280;23279;46.472;30.760;2022-08-19T03:59:09;75363.31;;;-146.33
37414;BMP280;23279;46.472;30.760;2022-08-19T04:01:35;75440.56;;;-146.33
37414;BMP280;23279;46.472;30.760;2022-08-19T04:04:00;75489.34;;;-146.33
37414;BMP280;23279;46.472;30.760;2022-08-19T04:06:28;75558.47;;;-146.33
37414;BMP280;23279;46.472;30.760;2022-08-19T04:08:55;75700.81;;;-146.33
37414;BMP280;23279;46.472;30.760;2022-08-19T04:11:22;75774.00;;;-146.33
37414;BMP280;23279;46.472;30.760;2022-08-19T04:13:49;75814.69;;;-146.33
37414;BMP280;23279;46.472;30.760;2022-08-19T04:16:16;75837.03;;;-146.33
37414;BMP280;23279;46.472;30.760;2022-08-19T04:18:41;75869.56;;;-146.33
37414;BMP280;23279;46.472;30.760;2022-08-19T04:21:07;75902.09;;;-146.33
37414;BMP280;23279;46.472;30.760;2022-08-19T04:23:34;75977.34;;;-146.33
37414;BMP280;23279;46.472;30.760;2022-08-19T04:26:01;75995.66;;;-146.33
37414;BMP280;23279;46.472;30.760;2022-08-19T04:28:26;75985.47;;;-146.33
37414;BMP280;23279;46.472;30.760;2022-08-19T04:30:52;76009.88;;;-146.33
37414;BMP280;23279;46.472;30.760;2022-08-19T04:33:19;76034.28;;;-146.33
37414;BMP280;23279;46.472;30.760;2022-08-19T04:35:46;76026.16;;;-146.33
37414;BMP280;23279;46.472;30.760;2022-08-19T04:38:12;76066.81;;;-146.33
37414;BMP280;23279;46.472;30.760;2022-08-19T04:40:41;76119.69;;;-146.33
37414;BMP280;23279;46.472;30.760;2022-08-19T04:43:25;76101.38;;;-146.33
37414;BMP280;23279;46.472;30.760;2022-08-19T04:45:51;76099.34;;;-146.33
37414;BMP280;23279;46.472;30.760;2022-08-19T04:48:16;76079.03;;;-146.33
37414;BMP280;23279;46.472;30.760;2022-08-19T04:50:44;76089.19;;;-146.33
37414;BMP280;23279;46.472;30.760;2022-08-19T04:53:09;76107.50;;;-146.33
37414;BMP280;23279;46.472;30.760;2022-08-19T04:55:38;76144.09;;;-146.33
37414;BMP280;23279;46.472;30.760;2022-08-19T04:58:03;76164.44;;;-146.33
37414;BMP280;23279;46.472;30.760;2022-08-19T05:00:28;76209.16;;;-146.33
37414;BMP280;23279;46.472;30.760;2022-08-19T05:02:54;76241.72;;;-146.33
37414;BMP280;23279;46.472;30.760;2022-08-19T05:05:19;76241.72;;;-146.33
37414;BMP280;23279;46.472;30.760;2022-08-19T05:07:44;76257.97;;;-146.33
37414;BMP280;23279;46.472;30.760;2022-08-19T05:10:10;76278.31;;;-146.33
37414;BMP280;23279;46.472;30.760;2022-08-19T05:12:35;76331.19;;;-146.33
37414;BMP280;23279;46.472;30.760;2022-08-19T05:15:02;76359.66;;;-146.33
37414;BMP280;23279;46.472;30.760;2022-08-19T05:17:28;76371.88;;;-146.33
37414;BMP280;23279;46.472;30.760;2022-08-19T05:19:53;76359.66;;;-146.33
37414;BMP280;23279;46.472;30.760;2022-08-19T05:22:48;76402.38;;;-146.33
37414;BMP280;23279;46.472;30.760;2022-08-19T05:25:15;76445.09;;;-146.33
37414;BMP280;23279;46.472;30.760;2022-08-19T05:27:43;76457.28;;;-146.33
37414;BMP280;23279;46.472;30.760;2022-08-19T05:30:08;76479.66;;;-146.33
37414;BMP280;23279;46.472;30.760;2022-08-19T05:32:34;76469.50;;;-146.33
37414;BMP280;23279;46.472;30.760;2022-08-19T05:34:59;76459.31;;;-146.33
37414;BMP280;23279;46.472;30.760;2022-08-19T05:37:24;76459.31;;;-146.33
37414;BMP280;23279;46.472;30.760;2022-08-19T05:39:52;76485.75;;;-146.33
37414;BMP280;23279;46.472;30.760;2022-08-19T05:42:19;76473.56;;;-146.33
37414;BMP280;23279;46.472;30.760;2022-08-19T05:44:45;76506.09;;;-146.33
37414;BMP280;23279;46.472;30.760;2022-08-19T05:47:12;76512.19;;;-146.33
37414;BMP280;23279;46.472;30.760;2022-08-19T05:49:38;76483.72;;;-146.33
37414;BMP280;23279;46.472;30.760;2022-08-19T05:52:04;76502.03;;;-146.33
37414;BMP280;23279;46.472;30.760;2022-08-19T05:54:30;76483.72;;;-146.33
37414;BMP280;23279;46.472;30.760;2022-08-19T05:56:56;76477.63;;;-146.33
37414;BMP280;23279;46.472;30.760;2022-08-19T05:59:21;76514.22;;;-146.33
37414;BMP280;23279;46.472;30.760;2022-08-19T06:01:47;76544.75;;;-146.33
37414;BMP280;23279;46.472;30.760;2022-08-19T06:04:15;76542.72;;;-146.33
37414;BMP280;23279;46.472;30.760;2022-08-19T06:06:42;76516.25;;;-146.33
37414;BMP280;23279;46.472;30.760;2022-08-19T06:09:07;76514.22;;;-146.33
37414;BMP280;23279;46.472;30.760;2022-08-19T06:11:34;76514.22;;;-146.33
37414;BMP280;23279;46.472;30.760;2022-08-19T06:14:01;76518.28;;;-146.33
37414;BMP280;23279;46.472;30.760;2022-08-19T06:16:27;76530.50;;;-146.33
37414;BMP280;23279;46.472;30.760;2022-08-19T06:18:54;76530.50;;;-146.33
37414;BMP280;23279;46.472;30.760;2022-08-19T06:21:20;76520.34;;;-146.33
37414;BMP280;23279;46.472;30.760;2022-08-19T06:23:47;76493.91;;;-146.33
37414;BMP280;23279;46.472;30.760;2022-08-19T06:26:13;76510.16;;;-146.33
37414;BMP280;23279;46.472;30.760;2022-08-19T06:28:38;76504.06;;;-146.33
37414;BMP280;23279;46.472;30.760;2022-08-19T06:31:08;76502.03;;;-146.33
37414;BMP280;23279;46.472;30.760;2022-08-19T06:33:33;76502.03;;;-146.33
37414;BMP280;23279;46.472;30.760;2022-08-19T06:35:59;76481.69;;;-146.33
37414;BMP280;23279;46.472;30.760;2022-08-19T06:38:24;76469.50;;;-146.33
37414;BMP280;23279;46.472;30.760;2022-08-19T06:40:49;76465.41;;;-146.33
37414;BMP280;23279;46.472;30.760;2022-08-19T06:43:15;76467.44;;;-146.33
37414;BMP280;23279;46.472;30.760;2022-08-19T06:45:40;76449.16;;;-146.33
37414;BMP280;23279;46.472;30.760;2022-08-19T06:48:06;76453.22;;;-146.33
37414;BMP280;23279;46.472;30.760;2022-08-19T06:50:32;76436.94;;;-146.33
37414;BMP280;23279;46.472;30.760;2022-08-19T06:52:57;76457.28;;;-146.33
37414;BMP280;23279;46.472;30.760;2022-08-19T06:55:22;76443.03;;;-146.33
37414;BMP280;23279;46.472;30.760;2022-08-19T06:57:48;76436.94;;;-146.33
37414;BMP280;23279;46.472;30.760;2022-08-19T07:00:15;76465.41;;;-146.33
37414;BMP280;23279;46.472;30.760;2022-08-19T07:02:41;76453.22;;;-146.33
37414;BMP280;23279;46.472;30.760;2022-08-19T07:05:07;76455.25;;;-146.33
37414;BMP280;23279;46.472;30.760;2022-08-19T07:07:32;76455.25;;;-146.33
37414;BMP280;23279;46.472;30.760;2022-08-19T07:09:58;76465.41;;;-146.33
37414;BMP280;23279;46.472;30.760;2022-08-19T07:12:24;76457.28;;;-146.33
37414;BMP280;23279;46.472;30.760;2022-08-19T07:14:49;76471.53;;;-146.33
37414;BMP280;23279;46.472;30.760;2022-08-19T07:17:14;76457.28;;;-146.33
37414;BMP280;23279;46.472;30.760;2022-08-19T07:19:40;76453.22;;;-146.33
37414;BMP280;23279;46.472;30.760;2022-08-19T07:22:06;76441.00;;;-146.33
37414;BMP280;23279;46.472;30.760;2022-08-19T07:24:32;76412.53;;;-146.33
37414;BMP280;23279;46.472;30.760;2022-08-19T07:26:59;76420.69;;;-146.33
37414;BMP280;23279;46.472;30.760;2022-08-19T07:29:25;76424.75;;;-146.33
37414;BMP280;23279;46.472;30.760;2022-08-19T07:31:53;76428.81;;;-146.33
37414;BMP280;23279;46.472;30.760;2022-08-19T07:34:21;76453.22;;;-146.33
37414;BMP280;23279;46.472;30.760;2022-08-19T07:36:46;76432.88;;;-146.33
37414;BMP280;23279;46.472;30.760;2022-08-19T07:39:17;76434.91;;;-146.33
37414;BMP280;23279;46.472;30.760;2022-08-19T07:41:42;76463.38;;;-146.33
37414;BMP280;23279;46.472;30.760;2022-08-19T07:44:08;76497.97;;;-146.33
37414;BMP280;23279;46.472;30.760;2022-08-19T07:46:35;76481.69;;;-146.33
37414;BMP280;23279;46.472;30.760;2022-08-19T07:49:02;76461.34;;;-146.33
37414;BMP280;23279;46.472;30.760;2022-08-19T07:51:28;76469.50;;;-146.33
37414;BMP280;23279;46.472;30.760;2022-08-19T07:53:54;76510.16;;;-146.33
37414;BMP280;23279;46.472;30.760;2022-08-19T07:56:20;76518.28;;;-146.33
37414;BMP280;23279;46.472;30.760;2022-08-19T07:58:47;76514.22;;;-146.33
37414;BMP280;23279;46.472;30.760;2022-08-19T08:01:14;76510.16;;;-146.33
37414;BMP280;23279;46.472;30.760;2022-08-19T08:03:40;76510.16;;;-146.33
37414;BMP280;23279;46.472;30.760;2022-08-19T08:06:24;76508.13;;;-146.33
37414;BMP280;23279;46.472;30.760;2022-08-19T08:09:09;76516.25;;;-146.33
37414;BMP280;23279;46.472;30.760;2022-08-19T08:11:43;76506.09;;;-146.33
37414;BMP280;23279;46.472;30.760;2022-08-19T08:14:14;76489.81;;;-146.33
37414;BMP280;23279;46.472;30.760;2022-08-19T08:16:40;76465.41;;;-146.33
37414;BMP280;23279;46.472;30.760;2022-08-19T08:19:07;76510.16;;;-146.33
37414;BMP280;23279;46.472;30.760;2022-08-19T08:21:33;76508.13;;;-146.33
37414;BMP280;23279;46.472;30.760;2022-08-19T08:23:58;76528.47;;;-146.33
37414;BMP280;23279;46.472;30.760;2022-08-19T08:26:24;76514.22;;;-146.33
37414;BMP280;23279;46.472;30.760;2022-08-19T08:28:50;76508.13;;;-146.33
37414;BMP280;23279;46.472;30.760;2022-08-19T08:31:15;76522.38;;;-146.33
37414;BMP280;23279;46.472;30.760;2022-08-19T08:33:41;76502.03;;;-146.33
37414;BMP280;23279;46.472;30.760;2022-08-19T08:36:07;76485.75;;;-146.33
37414;BMP280;23279;46.472;30.760;2022-08-19T08:38:33;76500.00;;;-146.33
37414;BMP280;23279;46.472;30.760;2022-08-19T08:43:38;76453.22;;;-146.33
37414;BMP280;23279;46.472;30.760;2022-08-19T08:46:17;76459.31;;;-146.33
37414;BMP280;23279;46.472;30.760;2022-08-19T08:51:38;76445.09;;;-146.33
37414;BMP280;23279;46.472;30.760;2022-08-19T08:54:07;76477.63;;;-146.33
37414;BMP280;23279;46.472;30.760;2022-08-19T08:56:33;76485.75;;;-146.33
37414;BMP280;23279;46.472;30.760;2022-08-19T08:59:03;76475.59;;;-146.33
37414;BMP280;23279;46.472;30.760;2022-08-19T09:01:32;76459.31;;;-146.33
37414;BMP280;23279;46.472;30.760;2022-08-19T09:03:57;76441.00;;;-146.33
37414;BMP280;23279;46.472;30.760;2022-08-19T09:06:25;76410.50;;;-146.33
37414;BMP280;23279;46.472;30.760;2022-08-19T09:11:43;76400.34;;;-146.33
37414;BMP280;23279;46.472;30.760;2022-08-19T09:16:33;76388.13;;;-146.33
37414;BMP280;23279;46.472;30.760;2022-08-19T09:19:03;76412.53;;;-146.33
37414;BMP280;23279;46.472;30.760;2022-08-19T09:21:29;76416.59;;;-146.33
37414;BMP280;23279;46.472;30.760;2022-08-19T09:23:54;76445.09;;;-146.33
37414;BMP280;23279;46.472;30.760;2022-08-19T09:26:21;76438.97;;;-146.33
37414;BMP280;23279;46.472;30.760;2022-08-19T09:28:47;76438.97;;;-146.33
37414;BMP280;23279;46.472;30.760;2022-08-19T09:31:14;76455.25;;;-146.33
37414;BMP280;23279;46.472;30.760;2022-08-19T09:33:39;76473.56;;;-146.33
37414;BMP280;23279;46.472;30.760;2022-08-19T09:36:09;76469.50;;;-146.33
37414;BMP280;23279;46.472;30.760;2022-08-19T09:38:35;76477.63;;;-146.33
37414;BMP280;23279;46.472;30.760;2022-08-19T09:41:02;76473.56;;;-146.33
37414;BMP280;23279;46.472;30.760;2022-08-19T09:43:27;76493.91;;;-146.33
37414;BMP280;23279;46.472;30.760;2022-08-19T09:45:53;76487.78;;;-146.33
37414;BMP280;23279;46.472;30.760;2022-08-19T09:48:18;76495.94;;;-146.33
37414;BMP280;23279;46.472;30.760;2022-08-19T09:50:46;76469.50;;;-146.33
37414;BMP280;23279;46.472;30.760;2022-08-19T09:53:11;76436.94;;;-146.33
37414;BMP280;23279;46.472;30.760;2022-08-19T09:55:41;76432.88;;;-146.33
37414;BMP280;23279;46.472;30.760;2022-08-19T09:58:06;76428.81;;;-146.33
37414;BMP280;23279;46.472;30.760;2022-08-19T10:00:32;76441.00;;;-146.33
37414;BMP280;23279;46.472;30.760;2022-08-19T10:02:57;76412.53;;;-146.33
37414;BMP280;23279;46.472;30.760;2022-08-19T10:05:22;76388.13;;;-146.33
37414;BMP280;23279;46.472;30.760;2022-08-19T10:08:06;76375.94;;;-146.33
37414;BMP280;23279;46.472;30.760;2022-08-19T10:10:34;76367.78;;;-146.33
37414;BMP280;23279;46.472;30.760;2022-08-19T10:13:00;76367.78;;;-146.33
37414;BMP280;23279;46.472;30.760;2022-08-19T10:15:25;76377.97;;;-146.33
37414;BMP280;23279;46.472;30.760;2022-08-19T10:17:52;76359.66;;;-146.33
37414;BMP280;23279;46.472;30.760;2022-08-19T10:20:17;76367.78;;;-146.33
37414;BMP280;23279;46.472;30.760;2022-08-19T10:22:42;76351.53;;;-146.33
37414;BMP280;23279;46.472;30.760;2022-08-19T10:25:08;76347.47;;;-146.33
37414;BMP280;23279;46.472;30.760;2022-08-19T10:27:33;76341.34;;;-146.33
37414;BMP280;23279;46.472;30.760;2022-08-19T10:29:59;76351.53;;;-146.33
37414;BMP280;23279;46.472;30.760;2022-08-19T10:32:24;76341.34;;;-146.33
37414;BMP280;23279;46.472;30.760;2022-08-19T10:34:50;76335.25;;;-146.33
37414;BMP280;23279;46.472;30.760;2022-08-19T10:37:17;76316.97;;;-146.33
37414;BMP280;23279;46.472;30.760;2022-08-19T10:39:43;76319.00;;;-146.33
37414;BMP280;23279;46.472;30.760;2022-08-19T10:42:10;76335.25;;;-146.33
37414;BMP280;23279;46.472;30.760;2022-08-19T10:44:36;76335.25;;;-146.33
37414;BMP280;23279;46.472;30.760;2022-08-19T10:47:02;76323.06;;;-146.33
37414;BMP280;23279;46.472;30.760;2022-08-19T10:49:28;76339.31;;;-146.33
37414;BMP280;23279;46.472;30.760;2022-08-19T10:51:54;76319.00;;;-146.33
37414;BMP280;23279;46.472;30.760;2022-08-19T10:54:38;76308.81;;;-146.33
37414;BMP280;23279;46.472;30.760;2022-08-19T10:57:22;76314.91;;;-146.33
37414;BMP280;23279;46.472;30.760;2022-08-19T10:59:53;76286.44;;;-146.33
37414;BMP280;23279;46.472;30.760;2022-08-19T11:02:19;76280.34;;;-146.33
37414;BMP280;23279;46.472;30.760;2022-08-19T11:04:44;76294.59;;;-146.33
37414;BMP280;23279;46.472;30.760;2022-08-19T11:07:09;76294.59;;;-146.33
37414;BMP280;23279;46.472;30.760;2022-08-19T11:09:37;76280.34;;;-146.33
37414;BMP280;23279;46.472;30.760;2022-08-19T11:12:03;76276.28;;;-146.33
37414;BMP280;23279;46.472;30.760;2022-08-19T11:14:29;76282.38;;;-146.33
37414;BMP280;23279;46.472;30.760;2022-08-19T11:16:57;76262.03;;;-146.33
37414;BMP280;23279;46.472;30.760;2022-08-19T11:19:23;76266.13;;;-146.33
37414;BMP280;23279;46.472;30.760;2022-08-19T11:21:49;76272.22;;;-146.33
37414;BMP280;23279;46.472;30.760;2022-08-19T11:24:19;76282.38;;;-146.33
37414;BMP280;23279;46.472;30.760;2022-08-19T11:26:45;76302.72;;;-146.33
37414;BMP280;23279;46.472;30.760;2022-08-19T11:29:11;76294.59;;;-146.33
37414;BMP280;23279;46.472;30.760;2022-08-19T11:31:38;76294.59;;;-146.33
37414;BMP280;23279;46.472;30.760;2022-08-19T11:34:05;76280.34;;;-146.33
37414;BMP280;23279;46.472;30.760;2022-08-19T11:36:31;76278.31;;;-146.33
37414;BMP280;23279;46.472;30.760;2022-08-19T11:38:59;76282.38;;;-146.33
37414;BMP280;23279;46.472;30.760;2022-08-19T11:41:25;76255.94;;;-146.33
37414;BMP280;23279;46.472;30.760;2022-08-19T11:43:51;76266.13;;;-146.33
37414;BMP280;23279;46.472;30.760;2022-08-19T11:46:18;76262.03;;;-146.33
37414;BMP280;23279;46.472;30.760;2022-08-19T11:48:44;76272.22;;;-146.33
37414;BMP280;23279;46.472;30.760;2022-08-19T11:51:10;76280.34;;;-146.33
37414;BMP280;23279;46.472;30.760;2022-08-19T11:53:37;76270.19;;;-146.33
37414;BMP280;23279;46.472;30.760;2022-08-19T11:56:03;76251.88;;;-146.33
37414;BMP280;23279;46.472;30.760;2022-08-19T11:58:28;76237.66;;;-146.33
37414;BMP280;23279;46.472;30.760;2022-08-19T12:00:56;76221.38;;;-146.33
37414;BMP280;23279;46.472;30.760;2022-08-19T12:03:22;76207.13;;;-146.33
37414;BMP280;23279;46.472;30.760;2022-08-19T12:05:47;76215.28;;;-146.33
37414;BMP280;23279;46.472;30.760;2022-08-19T12:08:15;76209.16;;;-146.33
37414;BMP280;23279;46.472;30.760;2022-08-19T12:10:41;76180.69;;;-146.33
37414;BMP280;23279;46.472;30.760;2022-08-19T12:13:07;76180.69;;;-146.33
37414;BMP280;23279;46.472;30.760;2022-08-19T12:15:36;76168.50;;;-146.33
37414;BMP280;23279;46.472;30.760;2022-08-19T12:18:02;76158.31;;;-146.33
37414;BMP280;23279;46.472;30.760;2022-08-19T12:20:27;76125.78;;;-146.33
37414;BMP280;23279;46.472;30.760;2022-08-19T12:22:53;76111.56;;;-146.33
37414;BMP280;23279;46.472;30.760;2022-08-19T12:25:18;76107.50;;;-146.33
37414;BMP280;23279;46.472;30.760;2022-08-19T12:27:43;76127.81;;;-146.33
37414;BMP280;23279;46.472;30.760;2022-08-19T12:30:10;76142.06;;;-146.33
37414;BMP280;23279;46.472;30.760;2022-08-19T12:32:36;76135.97;;;-146.33
37414;BMP280;23279;46.472;30.760;2022-08-19T12:35:02;76135.97;;;-146.33
37414;BMP280;23279;46.472;30.760;2022-08-19T12:37:27;76146.13;;;-146.33
37414;BMP280;23279;46.472;30.760;2022-08-19T12:39:53;76152.22;;;-146.33
37414;BMP280;23279;46.472;30.760;2022-08-19T12:42:18;76127.81;;;-146.33
37414;BMP280;23279;46.472;30.760;2022-08-19T12:44:44;76129.84;;;-146.33
37414;BMP280;23279;46.472;30.760;2022-08-19T12:47:10;76148.16;;;-146.33
37414;BMP280;23279;46.472;30.760;2022-08-19T12:49:36;76148.16;;;-146.33
37414;BMP280;23279;46.472;30.760;2022-08-19T12:52:04;76123.75;;;-146.33
37414;BMP280;23279;46.472;30.760;2022-08-19T12:54:30;76131.91;;;-146.33
37414;BMP280;23279;46.472;30.760;2022-08-19T12:56:56;76131.91;;;-146.33
37414;BMP280;23279;46.472;30.760;2022-08-19T12:59:21;76119.69;;;-146.33
37414;BMP280;23279;46.472;30.760;2022-08-19T13:01:47;76135.97;;;-146.33
37414;BMP280;23279;46.472;30.760;2022-08-19T13:04:12;76150.19;;;-146.33
37414;BMP280;23279;46.472;30.760;2022-08-19T13:06:37;76176.63;;;-146.33
37414;BMP280;23279;46.472;30.760;2022-08-19T13:09:03;76164.44;;;-146.33
37414;BMP280;23279;46.472;30.760;2022-08-19T13:11:28;76176.63;;;-146.33
37414;BMP280;23279;46.472;30.760;2022-08-19T13:13:57;76196.97;;;-146.33
37414;BMP280;23279;46.472;30.760;2022-08-19T13:16:23;76199.00;;;-146.33
37414;BMP280;23279;46.472;30.760;2022-08-19T13:18:48;76176.63;;;-146.33
37414;BMP280;23279;46.472;30.760;2022-08-19T13:21:17;76172.56;;;-146.33
37414;BMP280;23279;46.472;30.760;2022-08-19T13:23:44;76172.56;;;-146.33
37414;BMP280;23279;46.472;30.760;2022-08-19T13:26:10;76172.56;;;-146.33
37414;BMP280;23279;46.472;30.760;2022-08-19T13:28:36;76168.50;;;-146.33
37414;BMP280;23279;46.472;30.760;2022-08-19T13:31:21;76127.81;;;-146.33
37414;BMP280;23279;46.472;30.760;2022-08-19T13:34:05;76152.22;;;-146.33
37414;BMP280;23279;46.472;30.760;2022-08-19T13:36:31;76144.09;;;-146.33
37414;BMP280;23279;46.472;30.760;2022-08-19T13:38:57;76150.19;;;-146.33
37414;BMP280;23279;46.472;30.760;2022-08-19T13:41:22;76142.06;;;-146.33
37414;BMP280;23279;46.472;30.760;2022-08-19T13:43:48;76156.28;;;-146.33